Porto Esperidiao, Brazil
Current Conditions -  °F | °C
As of 5:00 PM on Friday 31 Oct 2014 (Local Time) from SBCY Reporting Station
Scattered Clouds Scattered Clouds  
Wind Chill: 88°   Ceiling: Unl
Heat Index: 94°   Visibility: 6mi
Dew Point: 72°   Wind: 8mph
Humidity: 58%   Direction: 90°E
Pressure: 29.8"   Gusts: NA
Location:  15.85°S, 58.46°W
Report Text: SBCY 312000Z 09007KT 9999 SCT020 SCT100 31/22 Q1009
Loading
Personal Weather Stations






























Interactive Weather Map
Tropical Storm Tracking
New forecast layout! Learn more

10-Day Weather Forecast

Advertisements
Track Severe Weather on mobile